sensor_id;sensor_type;location;lat;lon;timestamp;temperature;humidity
82243;DHT22;71844;51.528;4.442;2024-03-25T00:01:15;4.60;79.90
82243;DHT22;71844;51.528;4.442;2024-03-25T00:03:40;4.60;80.00
82243;DHT22;71844;51.528;4.442;2024-03-25T00:06:06;4.70;79.90
82243;DHT22;71844;51.528;4.442;2024-03-25T00:08:32;4.60;79.90
82243;DHT22;71844;51.528;4.442;2024-03-25T00:10:58;4.60;80.10
82243;DHT22;71844;51.528;4.442;2024-03-25T00:13:24;4.60;80.30
82243;DHT22;71844;51.528;4.442;2024-03-25T00:15:50;4.60;80.30
82243;DHT22;71844;51.528;4.442;2024-03-25T00:18:16;4.60;80.40
82243;DHT22;71844;51.528;4.442;2024-03-25T00:20:42;4.60;80.20
82243;DHT22;71844;51.528;4.442;2024-03-25T00:23:08;4.60;80.30
82243;DHT22;71844;51.528;4.442;2024-03-25T00:25:34;4.60;80.40
82243;DHT22;71844;51.528;4.442;2024-03-25T00:28:00;4.60;80.50
82243;DHT22;71844;51.528;4.442;2024-03-25T00:30:26;4.60;80.30
82243;DHT22;71844;51.528;4.442;2024-03-25T00:32:52;4.50;80.30
82243;DHT22;71844;51.528;4.442;2024-03-25T00:35:18;4.50;80.30
82243;DHT22;71844;51.528;4.442;2024-03-25T00:37:44;4.50;80.20
82243;DHT22;71844;51.528;4.442;2024-03-25T00:40:11;4.40;80.20
82243;DHT22;71844;51.528;4.442;2024-03-25T00:42:37;4.40;80.20
82243;DHT22;71844;51.528;4.442;2024-03-25T00:45:03;4.40;80.30
82243;DHT22;71844;51.528;4.442;2024-03-25T00:47:31;4.30;80.40
82243;DHT22;71844;51.528;4.442;2024-03-25T00:49:58;4.30;80.50
82243;DHT22;71844;51.528;4.442;2024-03-25T00:52:23;4.30;80.60
82243;DHT22;71844;51.528;4.442;2024-03-25T00:54:49;4.20;80.60
82243;DHT22;71844;51.528;4.442;2024-03-25T00:57:15;4.20;80.70
82243;DHT22;71844;51.528;4.442;2024-03-25T00:59:41;4.20;80.70
82243;DHT22;71844;51.528;4.442;2024-03-25T01:02:07;4.20;80.70
82243;DHT22;71844;51.528;4.442;2024-03-25T01:04:34;4.10;80.80
82243;DHT22;71844;51.528;4.442;2024-03-25T01:07:00;4.10;80.90
82243;DHT22;71844;51.528;4.442;2024-03-25T01:09:25;4.10;80.80
82243;DHT22;71844;51.528;4.442;2024-03-25T01:11:52;4.00;80.80
82243;DHT22;71844;51.528;4.442;2024-03-25T01:14:17;4.00;81.00
82243;DHT22;71844;51.528;4.442;2024-03-25T01:16:43;4.00;81.00
82243;DHT22;71844;51.528;4.442;2024-03-25T01:19:09;3.90;81.10
82243;DHT22;71844;51.528;4.442;2024-03-25T01:21:35;3.90;81.20
82243;DHT22;71844;51.528;4.442;2024-03-25T01:24:01;3.90;81.10
82243;DHT22;71844;51.528;4.442;2024-03-25T01:26:27;3.90;81.20
82243;DHT22;71844;51.528;4.442;2024-03-25T01:28:54;3.90;81.20
82243;DHT22;71844;51.528;4.442;2024-03-25T01:31:23;3.80;81.30
82243;DHT22;71844;51.528;4.442;2024-03-25T01:33:48;3.80;81.40
82243;DHT22;71844;51.528;4.442;2024-03-25T01:36:14;3.80;81.40
82243;DHT22;71844;51.528;4.442;2024-03-25T01:38:44;3.80;81.50
82243;DHT22;71844;51.528;4.442;2024-03-25T01:41:11;3.80;81.50
82243;DHT22;71844;51.528;4.442;2024-03-25T01:43:37;3.80;81.40
82243;DHT22;71844;51.528;4.442;2024-03-25T01:46:04;3.70;81.40
82243;DHT22;71844;51.528;4.442;2024-03-25T01:48:31;3.70;81.40
82243;DHT22;71844;51.528;4.442;2024-03-25T01:50:58;3.70;81.50
82243;DHT22;71844;51.528;4.442;2024-03-25T01:53:25;3.60;81.50
82243;DHT22;71844;51.528;4.442;2024-03-25T01:55:53;3.60;81.50
82243;DHT22;71844;51.528;4.442;2024-03-25T01:58:21;3.60;81.60
82243;DHT22;71844;51.528;4.442;2024-03-25T02:00:58;3.60;81.70
82243;DHT22;71844;51.528;4.442;2024-03-25T02:03:25;3.60;81.70
82243;DHT22;71844;51.528;4.442;2024-03-25T02:05:55;3.50;81.80
82243;DHT22;71844;51.528;4.442;2024-03-25T02:08:26;3.50;81.80
82243;DHT22;71844;51.528;4.442;2024-03-25T02:10:56;3.50;81.80
82243;DHT22;71844;51.528;4.442;2024-03-25T02:13:22;3.50;81.90
82243;DHT22;71844;51.528;4.442;2024-03-25T02:15:48;3.50;81.90
82243;DHT22;71844;51.528;4.442;2024-03-25T02:18:18;3.40;81.90
82243;DHT22;71844;51.528;4.442;2024-03-25T02:20:44;3.40;82.00
82243;DHT22;71844;51.528;4.442;2024-03-25T02:23:11;3.40;81.90
82243;DHT22;71844;51.528;4.442;2024-03-25T02:25:39;3.30;82.10
82243;DHT22;71844;51.528;4.442;2024-03-25T02:28:06;3.30;82.20
82243;DHT22;71844;51.528;4.442;2024-03-25T02:30:31;3.30;82.20
82243;DHT22;71844;51.528;4.442;2024-03-25T02:32:57;3.30;82.20
82243;DHT22;71844;51.528;4.442;2024-03-25T02:35:25;3.30;82.20
82243;DHT22;71844;51.528;4.442;2024-03-25T02:37:53;3.30;82.20
82243;DHT22;71844;51.528;4.442;2024-03-25T02:40:19;3.20;82.30
82243;DHT22;71844;51.528;4.442;2024-03-25T02:42:49;3.20;82.30
82243;DHT22;71844;51.528;4.442;2024-03-25T02:45:15;3.20;82.30
82243;DHT22;71844;51.528;4.442;2024-03-25T02:47:41;3.20;82.40
82243;DHT22;71844;51.528;4.442;2024-03-25T02:50:07;3.20;82.40
82243;DHT22;71844;51.528;4.442;2024-03-25T02:52:33;3.20;82.50
82243;DHT22;71844;51.528;4.442;2024-03-25T02:54:59;3.10;82.50
82243;DHT22;71844;51.528;4.442;2024-03-25T02:57:27;3.10;82.60
82243;DHT22;71844;51.528;4.442;2024-03-25T02:59:53;3.10;82.60
82243;DHT22;71844;51.528;4.442;2024-03-25T03:02:19;3.10;82.60
82243;DHT22;71844;51.528;4.442;2024-03-25T03:04:45;3.10;82.50
82243;DHT22;71844;51.528;4.442;2024-03-25T03:07:11;3.10;82.60
82243;DHT22;71844;51.528;4.442;2024-03-25T03:09:37;3.10;82.60
82243;DHT22;71844;51.528;4.442;2024-03-25T03:12:03;3.10;82.60
82243;DHT22;71844;51.528;4.442;2024-03-25T03:14:30;3.00;82.60
82243;DHT22;71844;51.528;4.442;2024-03-25T03:16:56;3.00;82.60
82243;DHT22;71844;51.528;4.442;2024-03-25T03:19:27;3.00;82.50
82243;DHT22;71844;51.528;4.442;2024-03-25T03:21:53;3.00;82.60
82243;DHT22;71844;51.528;4.442;2024-03-25T03:24:19;3.00;82.70
82243;DHT22;71844;51.528;4.442;2024-03-25T03:26:45;3.00;82.50
82243;DHT22;71844;51.528;4.442;2024-03-25T03:29:11;3.00;82.70
82243;DHT22;71844;51.528;4.442;2024-03-25T03:31:37;2.90;82.60
82243;DHT22;71844;51.528;4.442;2024-03-25T03:34:03;2.90;82.60
82243;DHT22;71844;51.528;4.442;2024-03-25T03:36:29;2.90;82.70
82243;DHT22;71844;51.528;4.442;2024-03-25T03:38:56;2.90;82.80
82243;DHT22;71844;51.528;4.442;2024-03-25T03:41:21;2.80;82.70
82243;DHT22;71844;51.528;4.442;2024-03-25T03:43:47;2.80;82.70
82243;DHT22;71844;51.528;4.442;2024-03-25T03:46:13;2.80;82.90
82243;DHT22;71844;51.528;4.442;2024-03-25T03:48:39;2.80;82.90
82243;DHT22;71844;51.528;4.442;2024-03-25T03:51:06;2.80;82.90
82243;DHT22;71844;51.528;4.442;2024-03-25T03:53:32;2.80;82.90
82243;DHT22;71844;51.528;4.442;2024-03-25T03:56:00;2.70;82.80
82243;DHT22;71844;51.528;4.442;2024-03-25T03:58:31;2.70;82.90
82243;DHT22;71844;51.528;4.442;2024-03-25T04:00:57;2.70;82.90
82243;DHT22;71844;51.528;4.442;2024-03-25T04:03:23;2.70;82.90
82243;DHT22;71844;51.528;4.442;2024-03-25T04:05:49;2.70;83.00
82243;DHT22;71844;51.528;4.442;2024-03-25T04:08:15;2.70;83.00
82243;DHT22;71844;51.528;4.442;2024-03-25T04:10:43;2.70;83.10
82243;DHT22;71844;51.528;4.442;2024-03-25T04:13:09;2.60;83.00
82243;DHT22;71844;51.528;4.442;2024-03-25T04:15:35;2.60;83.00
82243;DHT22;71844;51.528;4.442;2024-03-25T04:18:01;2.60;83.00
82243;DHT22;71844;51.528;4.442;2024-03-25T04:20:28;2.60;83.10
82243;DHT22;71844;51.528;4.442;2024-03-25T04:22:54;2.60;83.10
82243;DHT22;71844;51.528;4.442;2024-03-25T04:25:21;2.60;83.00
82243;DHT22;71844;51.528;4.442;2024-03-25T04:27:47;2.60;83.00
82243;DHT22;71844;51.528;4.442;2024-03-25T04:30:13;2.60;83.10
82243;DHT22;71844;51.528;4.442;2024-03-25T04:32:39;2.50;83.10
82243;DHT22;71844;51.528;4.442;2024-03-25T04:35:08;2.50;83.10
82243;DHT22;71844;51.528;4.442;2024-03-25T04:37:34;2.50;83.10
82243;DHT22;71844;51.528;4.442;2024-03-25T04:40:01;2.50;83.10
82243;DHT22;71844;51.528;4.442;2024-03-25T04:42:27;2.50;83.10
82243;DHT22;71844;51.528;4.442;2024-03-25T04:44:53;2.50;83.20
82243;DHT22;71844;51.528;4.442;2024-03-25T04:47:19;2.50;83.10
82243;DHT22;71844;51.528;4.442;2024-03-25T04:49:46;2.40;83.10
82243;DHT22;71844;51.528;4.442;2024-03-25T04:52:12;2.40;83.10
82243;DHT22;71844;51.528;4.442;2024-03-25T04:54:39;2.40;83.10
82243;DHT22;71844;51.528;4.442;2024-03-25T04:57:05;2.30;83.20
82243;DHT22;71844;51.528;4.442;2024-03-25T04:59:34;2.30;83.30
82243;DHT22;71844;51.528;4.442;2024-03-25T05:02:00;2.30;83.30
82243;DHT22;71844;51.528;4.442;2024-03-25T05:04:26;2.30;83.40
82243;DHT22;71844;51.528;4.442;2024-03-25T05:06:52;2.30;83.40
82243;DHT22;71844;51.528;4.442;2024-03-25T05:09:18;2.20;83.40
82243;DHT22;71844;51.528;4.442;2024-03-25T05:11:44;2.20;83.30
82243;DHT22;71844;51.528;4.442;2024-03-25T05:14:10;2.20;83.40
82243;DHT22;71844;51.528;4.442;2024-03-25T05:16:36;2.20;83.50
82243;DHT22;71844;51.528;4.442;2024-03-25T05:19:04;2.20;83.60
82243;DHT22;71844;51.528;4.442;2024-03-25T05:21:31;2.20;83.70
82243;DHT22;71844;51.528;4.442;2024-03-25T05:23:57;2.20;83.70
82243;DHT22;71844;51.528;4.442;2024-03-25T05:26:23;2.20;83.80
82243;DHT22;71844;51.528;4.442;2024-03-25T05:29:07;2.20;83.80
82243;DHT22;71844;51.528;4.442;2024-03-25T05:31:34;2.20;83.80
82243;DHT22;71844;51.528;4.442;2024-03-25T05:33:59;2.20;84.00
82243;DHT22;71844;51.528;4.442;2024-03-25T05:36:28;2.20;83.90
82243;DHT22;71844;51.528;4.442;2024-03-25T05:38:54;2.20;83.90
82243;DHT22;71844;51.528;4.442;2024-03-25T05:41:21;2.20;83.90
82243;DHT22;71844;51.528;4.442;2024-03-25T05:43:46;2.20;84.00
82243;DHT22;71844;51.528;4.442;2024-03-25T05:46:13;2.30;84.00
82243;DHT22;71844;51.528;4.442;2024-03-25T05:48:39;2.20;84.00
82243;DHT22;71844;51.528;4.442;2024-03-25T05:51:06;2.30;84.10
82243;DHT22;71844;51.528;4.442;2024-03-25T05:53:35;2.20;84.20
82243;DHT22;71844;51.528;4.442;2024-03-25T05:56:01;2.30;84.70
82243;DHT22;71844;51.528;4.442;2024-03-25T05:58:30;2.30;84.50
82243;DHT22;71844;51.528;4.442;2024-03-25T06:00:56;2.30;84.40
82243;DHT22;71844;51.528;4.442;2024-03-25T06:03:23;2.30;84.50
82243;DHT22;71844;51.528;4.442;2024-03-25T06:05:49;2.30;84.60
82243;DHT22;71844;51.528;4.442;2024-03-25T06:08:15;2.30;84.70
82243;DHT22;71844;51.528;4.442;2024-03-25T06:10:50;2.40;84.80
82243;DHT22;71844;51.528;4.442;2024-03-25T06:13:17;2.40;84.90
82243;DHT22;71844;51.528;4.442;2024-03-25T06:15:43;2.50;85.00
82243;DHT22;71844;51.528;4.442;2024-03-25T06:18:09;2.50;85.10
82243;DHT22;71844;51.528;4.442;2024-03-25T06:20:35;2.60;85.10
82243;DHT22;71844;51.528;4.442;2024-03-25T06:23:01;2.60;85.30
82243;DHT22;71844;51.528;4.442;2024-03-25T06:25:30;2.70;85.30
82243;DHT22;71844;51.528;4.442;2024-03-25T06:27:56;2.70;85.40
82243;DHT22;71844;51.528;4.442;2024-03-25T06:30:22;2.80;85.50
82243;DHT22;71844;51.528;4.442;2024-03-25T06:33:06;2.90;85.60
82243;DHT22;71844;51.528;4.442;2024-03-25T06:35:51;3.00;85.70
82243;DHT22;71844;51.528;4.442;2024-03-25T06:38:18;3.00;85.90
82243;DHT22;71844;51.528;4.442;2024-03-25T06:40:45;3.10;86.10
82243;DHT22;71844;51.528;4.442;2024-03-25T06:43:11;3.20;86.30
82243;DHT22;71844;51.528;4.442;2024-03-25T06:45:37;3.30;86.60
82243;DHT22;71844;51.528;4.442;2024-03-25T06:48:03;3.40;86.60
82243;DHT22;71844;51.528;4.442;2024-03-25T06:50:29;3.50;86.70
82243;DHT22;71844;51.528;4.442;2024-03-25T06:52:55;3.60;86.80
82243;DHT22;71844;51.528;4.442;2024-03-25T06:55:21;3.70;87.00
82243;DHT22;71844;51.528;4.442;2024-03-25T06:57:50;3.80;87.10
82243;DHT22;71844;51.528;4.442;2024-03-25T07:00:16;3.80;87.00
82243;DHT22;71844;51.528;4.442;2024-03-25T07:02:42;3.90;86.80
82243;DHT22;71844;51.528;4.442;2024-03-25T07:05:08;3.90;87.00
82243;DHT22;71844;51.528;4.442;2024-03-25T07:07:35;4.00;87.00
82243;DHT22;71844;51.528;4.442;2024-03-25T07:10:01;4.10;87.10
82243;DHT22;71844;51.528;4.442;2024-03-25T07:12:27;4.10;87.10
82243;DHT22;71844;51.528;4.442;2024-03-25T07:14:54;4.20;87.10
82243;DHT22;71844;51.528;4.442;2024-03-25T07:17:20;4.20;87.00
82243;DHT22;71844;51.528;4.442;2024-03-25T07:19:48;4.20;87.20
82243;DHT22;71844;51.528;4.442;2024-03-25T07:22:14;4.30;87.20
82243;DHT22;71844;51.528;4.442;2024-03-25T07:24:40;4.30;87.10
82243;DHT22;71844;51.528;4.442;2024-03-25T07:27:06;4.40;87.20
82243;DHT22;71844;51.528;4.442;2024-03-25T07:29:33;4.40;87.10
82243;DHT22;71844;51.528;4.442;2024-03-25T07:31:59;4.40;87.20
82243;DHT22;71844;51.528;4.442;2024-03-25T07:34:24;4.50;87.30
82243;DHT22;71844;51.528;4.442;2024-03-25T07:36:51;4.50;87.30
82243;DHT22;71844;51.528;4.442;2024-03-25T07:39:17;4.60;87.50
82243;DHT22;71844;51.528;4.442;2024-03-25T07:41:45;4.70;87.40
82243;DHT22;71844;51.528;4.442;2024-03-25T07:44:11;4.70;87.50
82243;DHT22;71844;51.528;4.442;2024-03-25T07:46:37;4.80;87.60
82243;DHT22;71844;51.528;4.442;2024-03-25T07:49:02;4.80;87.70
82243;DHT22;71844;51.528;4.442;2024-03-25T07:51:28;4.90;87.80
82243;DHT22;71844;51.528;4.442;2024-03-25T07:53:54;5.00;87.90
82243;DHT22;71844;51.528;4.442;2024-03-25T07:56:20;5.10;87.90
82243;DHT22;71844;51.528;4.442;2024-03-25T07:58:46;5.10;88.00
82243;DHT22;71844;51.528;4.442;2024-03-25T08:01:12;5.20;88.10
82243;DHT22;71844;51.528;4.442;2024-03-25T08:03:38;5.30;88.20
82243;DHT22;71844;51.528;4.442;2024-03-25T08:06:05;5.50;88.30
82243;DHT22;71844;51.528;4.442;2024-03-25T08:08:32;5.60;88.50
82243;DHT22;71844;51.528;4.442;2024-03-25T08:10:58;5.70;88.70
82243;DHT22;71844;51.528;4.442;2024-03-25T08:13:24;6.00;88.80
82243;DHT22;71844;51.528;4.442;2024-03-25T08:15:52;6.10;88.70
82243;DHT22;71844;51.528;4.442;2024-03-25T08:18:18;6.30;88.70
82243;DHT22;71844;51.528;4.442;2024-03-25T08:20:44;6.40;88.40
82243;DHT22;71844;51.528;4.442;2024-03-25T08:23:10;6.50;88.00
82243;DHT22;71844;51.528;4.442;2024-03-25T08:28:14;6.70;87.90
82243;DHT22;71844;51.528;4.442;2024-03-25T08:30:40;6.80;87.90
82243;DHT22;71844;51.528;4.442;2024-03-25T08:33:06;6.90;88.30
82243;DHT22;71844;51.528;4.442;2024-03-25T08:35:32;7.20;89.20
82243;DHT22;71844;51.528;4.442;2024-03-25T08:37:57;7.60;89.80
82243;DHT22;71844;51.528;4.442;2024-03-25T08:40:23;8.10;89.50
82243;DHT22;71844;51.528;4.442;2024-03-25T08:42:49;8.60;88.90
82243;DHT22;71844;51.528;4.442;2024-03-25T08:45:15;9.10;87.90
82243;DHT22;71844;51.528;4.442;2024-03-25T08:47:41;9.50;87.50
82243;DHT22;71844;51.528;4.442;2024-03-25T08:50:08;10.00;86.60
82243;DHT22;71844;51.528;4.442;2024-03-25T08:52:37;10.30;85.30
82243;DHT22;71844;51.528;4.442;2024-03-25T08:55:06;10.70;84.90
82243;DHT22;71844;51.528;4.442;2024-03-25T08:57:32;11.00;84.30
82243;DHT22;71844;51.528;4.442;2024-03-25T08:59:58;11.40;83.30
82243;DHT22;71844;51.528;4.442;2024-03-25T09:02:24;11.70;83.10
82243;DHT22;71844;51.528;4.442;2024-03-25T09:04:49;12.10;82.10
82243;DHT22;71844;51.528;4.442;2024-03-25T09:07:15;12.60;81.80
82243;DHT22;71844;51.528;4.442;2024-03-25T09:09:41;13.00;81.20
82243;DHT22;71844;51.528;4.442;2024-03-25T09:12:25;13.50;79.70
82243;DHT22;71844;51.528;4.442;2024-03-25T09:14:51;13.90;78.60
82243;DHT22;71844;51.528;4.442;2024-03-25T09:17:18;14.20;78.20
82243;DHT22;71844;51.528;4.442;2024-03-25T09:19:44;14.50;77.70
82243;DHT22;71844;51.528;4.442;2024-03-25T09:22:10;14.80;76.90
82243;DHT22;71844;51.528;4.442;2024-03-25T09:24:35;15.20;76.40
82243;DHT22;71844;51.528;4.442;2024-03-25T09:27:01;15.60;75.20
82243;DHT22;71844;51.528;4.442;2024-03-25T09:29:27;15.90;72.70
82243;DHT22;71844;51.528;4.442;2024-03-25T09:31:53;16.10;71.20
82243;DHT22;71844;51.528;4.442;2024-03-25T09:34:19;16.30;70.10
82243;DHT22;71844;51.528;4.442;2024-03-25T09:36:48;16.50;68.80
82243;DHT22;71844;51.528;4.442;2024-03-25T09:39:14;16.70;66.80
82243;DHT22;71844;51.528;4.442;2024-03-25T09:41:43;16.70;65.20
82243;DHT22;71844;51.528;4.442;2024-03-25T09:44:09;16.60;64.40
82243;DHT22;71844;51.528;4.442;2024-03-25T09:46:39;16.50;63.50
82243;DHT22;71844;51.528;4.442;2024-03-25T09:49:07;16.60;62.60
82243;DHT22;71844;51.528;4.442;2024-03-25T09:51:33;16.60;61.90
82243;DHT22;71844;51.528;4.442;2024-03-25T09:53:59;16.80;61.30
82243;DHT22;71844;51.528;4.442;2024-03-25T09:56:24;17.30;59.80
82243;DHT22;71844;51.528;4.442;2024-03-25T09:58:51;17.60;58.80
82243;DHT22;71844;51.528;4.442;2024-03-25T10:01:20;17.90;58.00
82243;DHT22;71844;51.528;4.442;2024-03-25T10:03:46;18.10;56.30
82243;DHT22;71844;51.528;4.442;2024-03-25T10:06:12;18.40;54.90
82243;DHT22;71844;51.528;4.442;2024-03-25T10:08:38;18.60;53.80
82243;DHT22;71844;51.528;4.442;2024-03-25T10:11:04;18.80;53.20
82243;DHT22;71844;51.528;4.442;2024-03-25T10:13:30;19.00;51.80
82243;DHT22;71844;51.528;4.442;2024-03-25T10:15:56;19.10;50.70
82243;DHT22;71844;51.528;4.442;2024-03-25T10:18:22;19.30;48.80
82243;DHT22;71844;51.528;4.442;2024-03-25T10:20:52;19.40;48.20
82243;DHT22;71844;51.528;4.442;2024-03-25T10:23:24;19.60;47.40
82243;DHT22;71844;51.528;4.442;2024-03-25T10:25:55;19.80;46.70
82243;DHT22;71844;51.528;4.442;2024-03-25T10:28:21;20.00;45.80
82243;DHT22;71844;51.528;4.442;2024-03-25T10:30:47;20.10;45.10
82243;DHT22;71844;51.528;4.442;2024-03-25T10:33:13;20.20;44.60
82243;DHT22;71844;51.528;4.442;2024-03-25T10:35:40;20.30;44.00
82243;DHT22;71844;51.528;4.442;2024-03-25T10:38:10;20.40;43.80
82243;DHT22;71844;51.528;4.442;2024-03-25T10:40:37;20.60;42.20
82243;DHT22;71844;51.528;4.442;2024-03-25T10:43:11;20.80;42.70
82243;DHT22;71844;51.528;4.442;2024-03-25T10:45:45;20.90;41.80
82243;DHT22;71844;51.528;4.442;2024-03-25T10:48:18;21.00;40.90
82243;DHT22;71844;51.528;4.442;2024-03-25T10:50:46;21.10;41.20
82243;DHT22;71844;51.528;4.442;2024-03-25T10:53:14;21.20;41.00
82243;DHT22;71844;51.528;4.442;2024-03-25T10:55:47;21.40;40.10
82243;DHT22;71844;51.528;4.442;2024-03-25T10:58:21;21.50;39.80
82243;DHT22;71844;51.528;4.442;2024-03-25T11:00:49;21.80;39.70
82243;DHT22;71844;51.528;4.442;2024-03-25T11:03:15;21.90;39.00
82243;DHT22;71844;51.528;4.442;2024-03-25T11:05:41;22.10;38.60
82243;DHT22;71844;51.528;4.442;2024-03-25T11:08:11;22.10;38.40
82243;DHT22;71844;51.528;4.442;2024-03-25T11:10:44;22.20;38.10
82243;DHT22;71844;51.528;4.442;2024-03-25T11:13:13;22.50;37.30
82243;DHT22;71844;51.528;4.442;2024-03-25T11:15:43;22.60;37.30
82243;DHT22;71844;51.528;4.442;2024-03-25T11:18:16;22.20;37.10
82243;DHT22;71844;51.528;4.442;2024-03-25T11:20:43;21.60;37.10
82243;DHT22;71844;51.528;4.442;2024-03-25T11:23:11;21.30;37.60
82243;DHT22;71844;51.528;4.442;2024-03-25T11:25:38;20.70;37.50
82243;DHT22;71844;51.528;4.442;2024-03-25T11:28:05;20.20;38.30
82243;DHT22;71844;51.528;4.442;2024-03-25T11:30:31;20.30;38.50
82243;DHT22;71844;51.528;4.442;2024-03-25T11:32:58;20.60;38.00
82243;DHT22;71844;51.528;4.442;2024-03-25T11:35:27;20.80;37.80
82243;DHT22;71844;51.528;4.442;2024-03-25T11:37:53;21.30;37.50
82243;DHT22;71844;51.528;4.442;2024-03-25T11:40:20;21.30;36.60
82243;DHT22;71844;51.528;4.442;2024-03-25T11:42:46;20.90;36.60
82243;DHT22;71844;51.528;4.442;2024-03-25T11:45:19;20.90;36.80
82243;DHT22;71844;51.528;4.442;2024-03-25T11:47:48;21.20;36.60
82243;DHT22;71844;51.528;4.442;2024-03-25T11:50:16;21.70;36.30
82243;DHT22;71844;51.528;4.442;2024-03-25T11:52:43;21.70;35.40
82243;DHT22;71844;51.528;4.442;2024-03-25T11:55:10;21.10;34.80
82243;DHT22;71844;51.528;4.442;2024-03-25T11:57:43;20.40;35.30
82243;DHT22;71844;51.528;4.442;2024-03-25T12:00:09;19.90;35.80
82243;DHT22;71844;51.528;4.442;2024-03-25T12:02:47;19.40;35.60
82243;DHT22;71844;51.528;4.442;2024-03-25T12:05:14;19.30;35.30
82243;DHT22;71844;51.528;4.442;2024-03-25T12:07:40;19.40;35.30
82243;DHT22;71844;51.528;4.442;2024-03-25T12:10:06;19.60;35.40
82243;DHT22;71844;51.528;4.442;2024-03-25T12:12:51;20.00;35.20
82243;DHT22;71844;51.528;4.442;2024-03-25T12:15:17;20.40;34.80
82243;DHT22;71844;51.528;4.442;2024-03-25T12:17:43;20.50;34.60
82243;DHT22;71844;51.528;4.442;2024-03-25T12:20:10;20.70;34.80
82243;DHT22;71844;51.528;4.442;2024-03-25T12:22:40;20.80;34.30
82243;DHT22;71844;51.528;4.442;2024-03-25T12:25:07;20.40;34.50
82243;DHT22;71844;51.528;4.442;2024-03-25T12:27:34;19.90;34.80
82243;DHT22;71844;51.528;4.442;2024-03-25T12:30:04;19.50;35.00
82243;DHT22;71844;51.528;4.442;2024-03-25T12:35:22;18.80;35.70
82243;DHT22;71844;51.528;4.442;2024-03-25T12:37:49;18.70;34.70
82243;DHT22;71844;51.528;4.442;2024-03-25T12:40:28;18.70;35.90
82243;DHT22;71844;51.528;4.442;2024-03-25T12:42:54;19.00;34.70
82243;DHT22;71844;51.528;4.442;2024-03-25T12:45:20;19.40;35.80
82243;DHT22;71844;51.528;4.442;2024-03-25T12:47:46;19.70;35.30
82243;DHT22;71844;51.528;4.442;2024-03-25T12:50:12;19.70;34.90
82243;DHT22;71844;51.528;4.442;2024-03-25T12:52:38;19.40;34.90
82243;DHT22;71844;51.528;4.442;2024-03-25T12:55:07;19.10;35.00
82243;DHT22;71844;51.528;4.442;2024-03-25T12:57:33;18.80;35.40
82243;DHT22;71844;51.528;4.442;2024-03-25T12:59:59;18.50;35.80
82243;DHT22;71844;51.528;4.442;2024-03-25T13:02:25;18.40;36.20
82243;DHT22;71844;51.528;4.442;2024-03-25T13:04:51;18.40;36.50
82243;DHT22;71844;51.528;4.442;2024-03-25T13:07:17;18.60;36.60
82243;DHT22;71844;51.528;4.442;2024-03-25T13:09:43;19.10;36.60
82243;DHT22;71844;51.528;4.442;2024-03-25T13:12:09;19.80;36.20
82243;DHT22;71844;51.528;4.442;2024-03-25T13:14:35;20.30;35.50
82243;DHT22;71844;51.528;4.442;2024-03-25T13:17:01;20.50;34.90
82243;DHT22;71844;51.528;4.442;2024-03-25T13:19:27;20.30;34.90
82243;DHT22;71844;51.528;4.442;2024-03-25T13:21:55;20.10;34.90
82243;DHT22;71844;51.528;4.442;2024-03-25T13:24:21;19.70;34.90
82243;DHT22;71844;51.528;4.442;2024-03-25T13:26:47;19.30;35.10
82243;DHT22;71844;51.528;4.442;2024-03-25T13:29:13;19.10;35.30
82243;DHT22;71844;51.528;4.442;2024-03-25T13:31:39;19.40;35.70
82243;DHT22;71844;51.528;4.442;2024-03-25T13:34:05;19.80;35.30
82243;DHT22;71844;51.528;4.442;2024-03-25T13:36:31;20.20;35.00
82243;DHT22;71844;51.528;4.442;2024-03-25T13:38:57;20.60;34.50
82243;DHT22;71844;51.528;4.442;2024-03-25T13:41:23;20.80;34.30
82243;DHT22;71844;51.528;4.442;2024-03-25T13:43:50;20.70;34.20
82243;DHT22;71844;51.528;4.442;2024-03-25T13:46:19;20.70;34.50
82243;DHT22;71844;51.528;4.442;2024-03-25T13:48:47;20.80;33.90
82243;DHT22;71844;51.528;4.442;2024-03-25T13:51:12;21.00;33.70
82243;DHT22;71844;51.528;4.442;2024-03-25T13:53:38;21.10;33.70
82243;DHT22;71844;51.528;4.442;2024-03-25T13:56:05;21.30;33.00
82243;DHT22;71844;51.528;4.442;2024-03-25T13:58:31;21.30;32.60
82243;DHT22;71844;51.528;4.442;2024-03-25T14:00:57;21.20;32.40
82243;DHT22;71844;51.528;4.442;2024-03-25T14:03:24;21.00;32.40
82243;DHT22;71844;51.528;4.442;2024-03-25T14:05:50;21.10;32.20
82243;DHT22;71844;51.528;4.442;2024-03-25T14:08:16;21.30;32.00
82243;DHT22;71844;51.528;4.442;2024-03-25T14:10:43;21.30;31.90
82243;DHT22;71844;51.528;4.442;2024-03-25T14:13:09;21.40;31.80
82243;DHT22;71844;51.528;4.442;2024-03-25T14:15:35;21.30;31.40
82243;DHT22;71844;51.528;4.442;2024-03-25T14:18:01;21.20;31.30
82243;DHT22;71844;51.528;4.442;2024-03-25T14:20:27;20.90;31.90
82243;DHT22;71844;51.528;4.442;2024-03-25T14:22:53;21.00;32.30
82243;DHT22;71844;51.528;4.442;2024-03-25T14:25:19;21.10;32.30
82243;DHT22;71844;51.528;4.442;2024-03-25T14:27:45;21.20;32.00
82243;DHT22;71844;51.528;4.442;2024-03-25T14:30:11;21.30;31.90
82243;DHT22;71844;51.528;4.442;2024-03-25T14:32:40;21.40;31.80
82243;DHT22;71844;51.528;4.442;2024-03-25T14:35:10;21.30;31.40
82243;DHT22;71844;51.528;4.442;2024-03-25T14:37:35;21.00;31.70
82243;DHT22;71844;51.528;4.442;2024-03-25T14:40:01;20.80;31.80
82243;DHT22;71844;51.528;4.442;2024-03-25T14:42:27;20.90;31.90
82243;DHT22;71844;51.528;4.442;2024-03-25T14:44:56;20.90;31.80
82243;DHT22;71844;51.528;4.442;2024-03-25T14:47:22;20.70;31.90
82243;DHT22;71844;51.528;4.442;2024-03-25T14:49:47;20.50;32.00
82243;DHT22;71844;51.528;4.442;2024-03-25T14:52:17;20.40;32.00
82243;DHT22;71844;51.528;4.442;2024-03-25T14:54:43;20.30;31.80
82243;DHT22;71844;51.528;4.442;2024-03-25T14:57:09;19.90;31.90
82243;DHT22;71844;51.528;4.442;2024-03-25T14:59:34;19.60;32.20
82243;DHT22;71844;51.528;4.442;2024-03-25T15:02:01;19.30;32.30
82243;DHT22;71844;51.528;4.442;2024-03-25T15:04:28;19.00;32.60
82243;DHT22;71844;51.528;4.442;2024-03-25T15:06:56;18.90;32.90
82243;DHT22;71844;51.528;4.442;2024-03-25T15:09:22;18.90;32.90
82243;DHT22;71844;51.528;4.442;2024-03-25T15:11:48;19.00;33.00
82243;DHT22;71844;51.528;4.442;2024-03-25T15:14:14;19.00;33.00
82243;DHT22;71844;51.528;4.442;2024-03-25T15:16:40;18.80;33.10
82243;DHT22;71844;51.528;4.442;2024-03-25T15:19:06;18.60;33.10
82243;DHT22;71844;51.528;4.442;2024-03-25T15:21:34;18.40;33.20
82243;DHT22;71844;51.528;4.442;2024-03-25T15:24:02;18.20;33.50
82243;DHT22;71844;51.528;4.442;2024-03-25T15:26:28;18.10;33.70
82243;DHT22;71844;51.528;4.442;2024-03-25T15:28:54;17.90;33.70
82243;DHT22;71844;51.528;4.442;2024-03-25T15:31:20;17.70;33.90
82243;DHT22;71844;51.528;4.442;2024-03-25T15:33:46;17.40;34.00
82243;DHT22;71844;51.528;4.442;2024-03-25T15:36:11;17.20;34.30
82243;DHT22;71844;51.528;4.442;2024-03-25T15:38:41;17.00;34.40
82243;DHT22;71844;51.528;4.442;2024-03-25T15:41:07;16.90;34.50
82243;DHT22;71844;51.528;4.442;2024-03-25T15:43:32;16.70;34.80